sensor_id;sensor_type;location;lat;lon;timestamp;pressure;altitude;pressure_sealevel;temperature;humidity
5753;BME280;2901;42.140;24.760;2023-09-18T00:01:47;99937.84;;;21.44;96.59
5753;BME280;2901;42.140;24.760;2023-09-18T00:04:13;99935.16;;;21.46;96.73
5753;BME280;2901;42.140;24.760;2023-09-18T00:06:38;99934.25;;;21.47;96.58
5753;BME280;2901;42.140;24.760;2023-09-18T00:09:03;99935.19;;;21.44;96.60
5753;BME280;2901;42.140;24.760;2023-09-18T00:11:29;99928.16;;;21.45;96.18
5753;BME280;2901;42.140;24.760;2023-09-18T00:13:54;99935.28;;;21.43;96.23
5753;BME280;2901;42.140;24.760;2023-09-18T00:16:19;99925.75;;;21.40;96.22
5753;BME280;2901;42.140;24.760;2023-09-18T00:18:45;99927.38;;;21.43;96.04
5753;BME280;2901;42.140;24.760;2023-09-18T00:21:11;99922.16;;;21.41;95.97
5753;BME280;2901;42.140;24.760;2023-09-18T00:23:37;99931.78;;;21.42;96.16
5753;BME280;2901;42.140;24.760;2023-09-18T00:26:03;99924.59;;;21.46;96.02
5753;BME280;2901;42.140;24.760;2023-09-18T00:28:28;99928.03;;;21.28;96.71
5753;BME280;2901;42.140;24.760;2023-09-18T00:30:54;99935.94;;;21.28;96.77
5753;BME280;2901;42.140;24.760;2023-09-18T00:33:20;99929.16;;;21.22;96.86
5753;BME280;2901;42.140;24.760;2023-09-18T00:35:49;99927.44;;;21.21;96.97
5753;BME280;2901;42.140;24.760;2023-09-18T00:38:15;99928.38;;;21.20;97.21
5753;BME280;2901;42.140;24.760;2023-09-18T00:40:41;99933.56;;;21.21;97.78
5753;BME280;2901;42.140;24.760;2023-09-18T00:43:07;99922.25;;;21.19;97.43
5753;BME280;2901;42.140;24.760;2023-09-18T00:45:34;99928.16;;;21.25;97.66
5753;BME280;2901;42.140;24.760;2023-09-18T00:48:01;99929.16;;;21.22;97.49
5753;BME280;2901;42.140;24.760;2023-09-18T00:50:27;99926.84;;;21.14;97.85
5753;BME280;2901;42.140;24.760;2023-09-18T00:52:52;99927.72;;;21.15;97.85
5753;BME280;2901;42.140;24.760;2023-09-18T00:55:18;99924.66;;;21.04;98.24
5753;BME280;2901;42.140;24.760;2023-09-18T00:57:43;99925.16;;;21.13;98.26
5753;BME280;2901;42.140;24.760;2023-09-18T01:00:10;99924.44;;;21.10;98.32
5753;BME280;2901;42.140;24.760;2023-09-18T01:02:40;99920.22;;;21.04;98.39
5753;BME280;2901;42.140;24.760;2023-09-18T01:05:06;99918.56;;;21.02;98.41
5753;BME280;2901;42.140;24.760;2023-09-18T01:07:31;99908.91;;;21.02;98.23
5753;BME280;2901;42.140;24.760;2023-09-18T01:09:57;99917.41;;;21.09;98.18
5753;BME280;2901;42.140;24.760;2023-09-18T01:15:06;99920.78;;;21.12;97.50
5753;BME280;2901;42.140;24.760;2023-09-18T01:17:35;99928.94;;;21.06;97.82
5753;BME280;2901;42.140;24.760;2023-09-18T01:20:02;99926.22;;;21.08;97.41
5753;BME280;2901;42.140;24.760;2023-09-18T01:22:31;99919.88;;;21.13;97.25
5753;BME280;2901;42.140;24.760;2023-09-18T01:24:57;99923.03;;;21.21;96.52
5753;BME280;2901;42.140;24.760;2023-09-18T01:27:23;99920.53;;;21.18;96.65
5753;BME280;2901;42.140;24.760;2023-09-18T01:29:48;99910.50;;;21.06;96.80
5753;BME280;2901;42.140;24.760;2023-09-18T01:32:15;99926.34;;;21.05;96.80
5753;BME280;2901;42.140;24.760;2023-09-18T01:34:49;99923.19;;;20.97;97.28
5753;BME280;2901;42.140;24.760;2023-09-18T01:37:16;99911.72;;;20.98;97.31
5753;BME280;2901;42.140;24.760;2023-09-18T01:39:44;99921.34;;;20.99;97.28
5753;BME280;2901;42.140;24.760;2023-09-18T01:42:11;99923.78;;;21.03;97.16
5753;BME280;2901;42.140;24.760;2023-09-18T01:44:37;99923.72;;;21.05;96.81
5753;BME280;2901;42.140;24.760;2023-09-18T01:47:05;99923.19;;;20.97;96.92
5753;BME280;2901;42.140;24.760;2023-09-18T01:49:36;99923.19;;;20.97;97.24
5753;BME280;2901;42.140;24.760;2023-09-18T01:52:02;99923.19;;;20.97;97.45
5753;BME280;2901;42.140;24.760;2023-09-18T01:54:29;99920.94;;;21.09;97.04
5753;BME280;2901;42.140;24.760;2023-09-18T01:56:54;99921.16;;;21.03;96.80
5753;BME280;2901;42.140;24.760;2023-09-18T01:59:20;99919.88;;;20.92;97.30
5753;BME280;2901;42.140;24.760;2023-09-18T02:01:46;99919.63;;;20.98;97.28
5753;BME280;2901;42.140;24.760;2023-09-18T02:04:12;99926.75;;;20.96;97.32
5753;BME280;2901;42.140;24.760;2023-09-18T02:06:37;99921.88;;;21.07;96.89
5753;BME280;2901;42.140;24.760;2023-09-18T02:09:03;99919.25;;;21.07;96.83
5753;BME280;2901;42.140;24.760;2023-09-18T02:11:38;99915.56;;;21.11;96.11
5753;BME280;2901;42.140;24.760;2023-09-18T02:14:04;99928.84;;;21.08;96.37
5753;BME280;2901;42.140;24.760;2023-09-18T02:16:31;99930.34;;;21.15;95.96
5753;BME280;2901;42.140;24.760;2023-09-18T02:18:56;99926.94;;;21.13;95.93
5753;BME280;2901;42.140;24.760;2023-09-18T02:21:22;99926.88;;;20.93;96.61
5753;BME280;2901;42.140;24.760;2023-09-18T02:23:52;99917.13;;;20.95;96.68
5753;BME280;2901;42.140;24.760;2023-09-18T02:26:23;99927.22;;;21.05;96.30
5753;BME280;2901;42.140;24.760;2023-09-18T02:28:51;99924.94;;;21.18;96.38
5753;BME280;2901;42.140;24.760;2023-09-18T02:31:16;99924.75;;;21.23;96.00
5753;BME280;2901;42.140;24.760;2023-09-18T02:33:42;99928.13;;;21.26;95.86
5753;BME280;2901;42.140;24.760;2023-09-18T02:36:08;99924.06;;;21.17;95.80
5753;BME280;2901;42.140;24.760;2023-09-18T02:38:33;99930.88;;;21.23;95.60
5753;BME280;2901;42.140;24.760;2023-09-18T02:40:59;99936.00;;;21.26;95.99
5753;BME280;2901;42.140;24.760;2023-09-18T02:43:25;99932.19;;;21.33;96.17
5753;BME280;2901;42.140;24.760;2023-09-18T02:45:51;99934.56;;;21.39;95.67
5753;BME280;2901;42.140;24.760;2023-09-18T02:48:17;99928.09;;;21.46;94.86
5753;BME280;2901;42.140;24.760;2023-09-18T02:50:42;99934.97;;;21.50;93.99
5753;BME280;2901;42.140;24.760;2023-09-18T02:53:16;99938.50;;;21.49;94.03
5753;BME280;2901;42.140;24.760;2023-09-18T02:55:41;99944.56;;;21.51;94.41
5753;BME280;2901;42.140;24.760;2023-09-18T02:58:07;99936.00;;;21.46;95.72
5753;BME280;2901;42.140;24.760;2023-09-18T03:00:34;99942.72;;;21.53;94.36
5753;BME280;2901;42.140;24.760;2023-09-18T03:02:59;99942.50;;;21.58;93.71
5753;BME280;2901;42.140;24.760;2023-09-18T03:05:25;99940.69;;;21.60;93.61
5753;BME280;2901;42.140;24.760;2023-09-18T03:07:51;99951.00;;;21.64;93.58
5753;BME280;2901;42.140;24.760;2023-09-18T03:10:16;99943.91;;;21.66;93.28
5753;BME280;2901;42.140;24.760;2023-09-18T03:12:47;99943.94;;;21.65;93.13
5753;BME280;2901;42.140;24.760;2023-09-18T03:15:12;99942.09;;;21.67;92.78
5753;BME280;2901;42.140;24.760;2023-09-18T03:17:37;99944.66;;;21.68;92.68
5753;BME280;2901;42.140;24.760;2023-09-18T03:20:06;99951.72;;;21.68;93.32
5753;BME280;2901;42.140;24.760;2023-09-18T03:22:32;99939.81;;;21.59;93.23
5753;BME280;2901;42.140;24.760;2023-09-18T03:24:57;99939.81;;;21.59;93.33
5753;BME280;2901;42.140;24.760;2023-09-18T03:27:23;99936.38;;;21.57;93.11
5753;BME280;2901;42.140;24.760;2023-09-18T03:29:54;99949.34;;;21.62;93.59
5753;BME280;2901;42.140;24.760;2023-09-18T03:32:19;99933.41;;;21.65;93.25
5753;BME280;2901;42.140;24.760;2023-09-18T03:34:44;99940.13;;;21.72;92.48
5753;BME280;2901;42.140;24.760;2023-09-18T03:37:10;99946.41;;;21.69;92.76
5753;BME280;2901;42.140;24.760;2023-09-18T03:39:35;99948.16;;;21.69;92.78
5753;BME280;2901;42.140;24.760;2023-09-18T03:42:01;99946.53;;;21.66;92.86
5753;BME280;2901;42.140;24.760;2023-09-18T03:44:26;99943.19;;;21.63;93.05
5753;BME280;2901;42.140;24.760;2023-09-18T03:46:52;99939.25;;;21.71;92.80
5753;BME280;2901;42.140;24.760;2023-09-18T03:49:17;99947.16;;;21.71;92.53
5753;BME280;2901;42.140;24.760;2023-09-18T03:51:42;99952.63;;;21.67;92.76
5753;BME280;2901;42.140;24.760;2023-09-18T03:54:09;99937.91;;;21.63;92.48
5753;BME280;2901;42.140;24.760;2023-09-18T03:56:35;99939.81;;;21.59;92.06
5753;BME280;2901;42.140;24.760;2023-09-18T03:59:00;99940.91;;;21.54;92.36
5753;BME280;2901;42.140;24.760;2023-09-18T04:01:27;99950.88;;;21.47;92.85
5753;BME280;2901;42.140;24.760;2023-09-18T04:03:52;99952.72;;;21.45;92.96
5753;BME280;2901;42.140;24.760;2023-09-18T04:06:20;99955.38;;;21.45;92.78
5753;BME280;2901;42.140;24.760;2023-09-18T04:08:45;99950.97;;;21.46;92.74
5753;BME280;2901;42.140;24.760;2023-09-18T04:11:11;99954.47;;;21.46;92.97
5753;BME280;2901;42.140;24.760;2023-09-18T04:13:36;99950.19;;;21.44;92.77
5753;BME280;2901;42.140;24.760;2023-09-18T04:16:04;99952.69;;;21.47;92.88
5753;BME280;2901;42.140;24.760;2023-09-18T04:18:29;99958.09;;;21.44;92.83
5753;BME280;2901;42.140;24.760;2023-09-18T04:20:54;99953.06;;;21.38;93.42
5753;BME280;2901;42.140;24.760;2023-09-18T04:23:25;99950.41;;;21.38;93.20
5753;BME280;2901;42.140;24.760;2023-09-18T04:25:52;99957.22;;;21.43;93.25
5753;BME280;2901;42.140;24.760;2023-09-18T04:28:19;99951.16;;;21.41;92.97
5753;BME280;2901;42.140;24.760;2023-09-18T04:30:45;99953.66;;;21.44;93.34
5753;BME280;2901;42.140;24.760;2023-09-18T04:33:12;99950.88;;;21.47;92.95
5753;BME280;2901;42.140;24.760;2023-09-18T04:35:38;99949.97;;;21.48;93.00
5753;BME280;2901;42.140;24.760;2023-09-18T04:38:06;99964.88;;;21.49;92.64
5753;BME280;2901;42.140;24.760;2023-09-18T04:40:32;99954.38;;;21.48;92.85
5753;BME280;2901;42.140;24.760;2023-09-18T04:43:01;99948.13;;;21.50;92.90
5753;BME280;2901;42.140;24.760;2023-09-18T04:45:26;99949.03;;;21.49;92.84
5753;BME280;2901;42.140;24.760;2023-09-18T04:47:52;99945.38;;;21.53;92.51
5753;BME280;2901;42.140;24.760;2023-09-18T04:50:18;99956.63;;;21.57;92.60
5753;BME280;2901;42.140;24.760;2023-09-18T04:52:43;99947.00;;;21.56;92.68
5753;BME280;2901;42.140;24.760;2023-09-18T04:55:10;99957.22;;;21.63;91.87
5753;BME280;2901;42.140;24.760;2023-09-18T04:57:36;99950.94;;;21.66;91.47
5753;BME280;2901;42.140;24.760;2023-09-18T05:00:02;99957.56;;;21.74;91.50
5753;BME280;2901;42.140;24.760;2023-09-18T05:02:28;99958.00;;;21.84;91.28
5753;BME280;2901;42.140;24.760;2023-09-18T05:04:56;99956.31;;;21.83;90.88
5753;BME280;2901;42.140;24.760;2023-09-18T05:07:21;99957.97;;;21.86;90.86
5753;BME280;2901;42.140;24.760;2023-09-18T05:09:47;99956.66;;;21.96;90.55
5753;BME280;2901;42.140;24.760;2023-09-18T05:12:12;99964.19;;;22.03;90.13
5753;BME280;2901;42.140;24.760;2023-09-18T05:14:41;99964.00;;;22.08;89.85
5753;BME280;2901;42.140;24.760;2023-09-18T05:17:10;99959.44;;;22.11;89.81
5753;BME280;2901;42.140;24.760;2023-09-18T05:19:36;99958.22;;;22.18;89.29
5753;BME280;2901;42.140;24.760;2023-09-18T05:22:01;99959.66;;;22.26;88.83
5753;BME280;2901;42.140;24.760;2023-09-18T05:24:28;99959.13;;;22.36;88.48
5753;BME280;2901;42.140;24.760;2023-09-18T05:26:54;99953.19;;;22.50;88.02
5753;BME280;2901;42.140;24.760;2023-09-18T05:29:20;99948.06;;;22.65;87.07
5753;BME280;2901;42.140;24.760;2023-09-18T05:31:46;99952.41;;;22.66;86.61
5753;BME280;2901;42.140;24.760;2023-09-18T05:34:12;99944.91;;;22.76;86.54
5753;BME280;2901;42.140;24.760;2023-09-18T05:36:37;99949.66;;;22.87;85.72
5753;BME280;2901;42.140;24.760;2023-09-18T05:39:03;99951.56;;;23.02;83.44
5753;BME280;2901;42.140;24.760;2023-09-18T05:41:35;99939.88;;;23.06;83.03
5753;BME280;2901;42.140;24.760;2023-09-18T05:44:00;99941.22;;;22.97;83.08
5753;BME280;2901;42.140;24.760;2023-09-18T05:46:29;99936.88;;;23.13;82.22
5753;BME280;2901;42.140;24.760;2023-09-18T05:48:54;99942.59;;;23.39;81.45
5753;BME280;2901;42.140;24.760;2023-09-18T05:51:23;99945.03;;;23.60;80.21
5753;BME280;2901;42.140;24.760;2023-09-18T05:53:48;99947.47;;;23.81;77.58
5753;BME280;2901;42.140;24.760;2023-09-18T05:56:14;99949.72;;;24.04;76.89
5753;BME280;2901;42.140;24.760;2023-09-18T05:58:42;99957.19;;;24.13;76.08
5753;BME280;2901;42.140;24.760;2023-09-18T06:01:07;99952.75;;;24.13;75.77
5753;BME280;2901;42.140;24.760;2023-09-18T06:03:33;99951.63;;;24.17;75.75
5753;BME280;2901;42.140;24.760;2023-09-18T06:06:06;99956.53;;;23.92;76.75
5753;BME280;2901;42.140;24.760;2023-09-18T06:08:32;99956.75;;;23.88;77.00
5753;BME280;2901;42.140;24.760;2023-09-18T06:10:58;99962.81;;;23.74;77.91
5753;BME280;2901;42.140;24.760;2023-09-18T06:13:24;99966.78;;;23.65;78.31
5753;BME280;2901;42.140;24.760;2023-09-18T06:15:51;99964.63;;;23.56;78.90
5753;BME280;2901;42.140;24.760;2023-09-18T06:18:18;99972.19;;;23.47;78.63
5753;BME280;2901;42.140;24.760;2023-09-18T06:20:46;99967.44;;;23.53;78.36
5753;BME280;2901;42.140;24.760;2023-09-18T06:23:11;99968.81;;;23.60;78.35
5753;BME280;2901;42.140;24.760;2023-09-18T06:25:36;99975.91;;;23.60;79.13
5753;BME280;2901;42.140;24.760;2023-09-18T06:28:03;99972.91;;;23.66;78.79
5753;BME280;2901;42.140;24.760;2023-09-18T06:30:29;99980.97;;;23.64;78.58
5753;BME280;2901;42.140;24.760;2023-09-18T06:32:56;99983.28;;;23.53;78.06
5753;BME280;2901;42.140;24.760;2023-09-18T06:35:21;99977.38;;;23.48;78.27
5753;BME280;2901;42.140;24.760;2023-09-18T06:37:47;99979.31;;;23.45;78.47
5753;BME280;2901;42.140;24.760;2023-09-18T06:40:13;99985.72;;;23.41;79.00
5753;BME280;2901;42.140;24.760;2023-09-18T06:42:38;99976.38;;;23.51;78.69
5753;BME280;2901;42.140;24.760;2023-09-18T06:45:05;99976.50;;;23.65;78.08
5753;BME280;2901;42.140;24.760;2023-09-18T06:47:32;99981.31;;;23.74;78.10
5753;BME280;2901;42.140;24.760;2023-09-18T06:49:58;99974.69;;;23.83;78.35
5753;BME280;2901;42.140;24.760;2023-09-18T06:52:25;99977.78;;;23.91;76.58
5753;BME280;2901;42.140;24.760;2023-09-18T06:54:52;99972.84;;;24.00;75.51
5753;BME280;2901;42.140;24.760;2023-09-18T06:57:17;99979.06;;;23.99;75.68
5753;BME280;2901;42.140;24.760;2023-09-18T06:59:43;99977.97;;;24.03;75.78
5753;BME280;2901;42.140;24.760;2023-09-18T07:02:08;99977.63;;;24.26;74.94
5753;BME280;2901;42.140;24.760;2023-09-18T07:04:33;99982.47;;;24.34;73.44
5753;BME280;2901;42.140;24.760;2023-09-18T07:06:59;99976.75;;;24.57;73.14
5753;BME280;2901;42.140;24.760;2023-09-18T07:09:24;99971.38;;;24.90;71.48
5753;BME280;2901;42.140;24.760;2023-09-18T07:11:51;99974.31;;;25.15;69.92
5753;BME280;2901;42.140;24.760;2023-09-18T07:14:17;99967.41;;;25.27;68.41
5753;BME280;2901;42.140;24.760;2023-09-18T07:16:42;99964.78;;;25.27;69.72
5753;BME280;2901;42.140;24.760;2023-09-18T07:19:08;99975.63;;;25.08;69.78
5753;BME280;2901;42.140;24.760;2023-09-18T07:21:37;99970.75;;;25.01;69.54
5753;BME280;2901;42.140;24.760;2023-09-18T07:24:03;99979.69;;;25.14;68.01
5753;BME280;2901;42.140;24.760;2023-09-18T07:26:29;99969.53;;;25.36;66.14
5753;BME280;2901;42.140;24.760;2023-09-18T07:28:54;99970.88;;;25.43;66.27
5753;BME280;2901;42.140;24.760;2023-09-18T07:31:19;99987.03;;;25.54;66.53
5753;BME280;2901;42.140;24.760;2023-09-18T07:33:45;99963.94;;;25.70;64.95
5753;BME280;2901;42.140;24.760;2023-09-18T07:36:10;99985.75;;;26.04;63.73
5753;BME280;2901;42.140;24.760;2023-09-18T07:38:36;99984.22;;;26.14;62.54
5753;BME280;2901;42.140;24.760;2023-09-18T07:41:02;99984.69;;;26.35;62.05
5753;BME280;2901;42.140;24.760;2023-09-18T07:43:28;99989.72;;;26.25;61.51
5753;BME280;2901;42.140;24.760;2023-09-18T07:45:53;99988.94;;;26.09;62.10
5753;BME280;2901;42.140;24.760;2023-09-18T07:48:19;99995.97;;;25.96;61.63
5753;BME280;2901;42.140;24.760;2023-09-18T07:50:46;99992.00;;;25.74;60.56
5753;BME280;2901;42.140;24.760;2023-09-18T07:53:11;99982.44;;;25.42;62.12
5753;BME280;2901;42.140;24.760;2023-09-18T07:55:37;99989.63;;;25.40;63.81
5753;BME280;2901;42.140;24.760;2023-09-18T07:58:03;99978.47;;;25.19;64.82
5753;BME280;2901;42.140;24.760;2023-09-18T08:00:30;99977.22;;;25.11;64.96
5753;BME280;2901;42.140;24.760;2023-09-18T08:02:55;99975.69;;;25.37;64.92
5753;BME280;2901;42.140;24.760;2023-09-18T08:05:26;99980.13;;;25.22;62.67
5753;BME280;2901;42.140;24.760;2023-09-18T08:07:57;99973.31;;;25.32;62.83
5753;BME280;2901;42.140;24.760;2023-09-18T08:10:24;99973.25;;;25.48;63.15
5753;BME280;2901;42.140;24.760;2023-09-18T08:12:50;99975.97;;;25.46;63.60
5753;BME280;2901;42.140;24.760;2023-09-18T08:15:20;99978.63;;;25.62;63.25
5753;BME280;2901;42.140;24.760;2023-09-18T08:17:46;99973.69;;;25.70;62.59
5753;BME280;2901;42.140;24.760;2023-09-18T08:20:13;99976.84;;;25.91;61.84
5753;BME280;2901;42.140;24.760;2023-09-18T08:22:41;99968.69;;;25.94;62.10
5753;BME280;2901;42.140;24.760;2023-09-18T08:25:07;99970.56;;;26.06;61.83
5753;BME280;2901;42.140;24.760;2023-09-18T08:27:37;99965.19;;;26.07;61.12
5753;BME280;2901;42.140;24.760;2023-09-18T08:30:06;99959.22;;;26.18;59.67
5753;BME280;2901;42.140;24.760;2023-09-18T08:32:31;99963.44;;;26.35;59.62
5753;BME280;2901;42.140;24.760;2023-09-18T08:34:59;99965.63;;;26.28;59.15
5753;BME280;2901;42.140;24.760;2023-09-18T08:37:26;99961.06;;;26.16;59.26
5753;BME280;2901;42.140;24.760;2023-09-18T08:39:52;99968.69;;;26.08;59.64
5753;BME280;2901;42.140;24.760;2023-09-18T08:42:17;99967.94;;;25.92;59.44
5753;BME280;2901;42.140;24.760;2023-09-18T08:44:45;99958.22;;;25.62;60.56
5753;BME280;2901;42.140;24.760;2023-09-18T08:47:14;99948.59;;;25.46;60.59
5753;BME280;2901;42.140;24.760;2023-09-18T08:49:41;99957.28;;;25.63;61.51
5753;BME280;2901;42.140;24.760;2023-09-18T08:52:07;99959.31;;;25.88;60.04
5753;BME280;2901;42.140;24.760;2023-09-18T08:54:33;99962.63;;;25.92;60.29
5753;BME280;2901;42.140;24.760;2023-09-18T08:56:59;99957.41;;;26.04;59.77
5753;BME280;2901;42.140;24.760;2023-09-18T08:59:25;99955.31;;;26.38;58.87
5753;BME280;2901;42.140;24.760;2023-09-18T09:01:52;99961.63;;;26.35;57.42
5753;BME280;2901;42.140;24.760;2023-09-18T09:04:17;99946.78;;;26.59;56.91
5753;BME280;2901;42.140;24.760;2023-09-18T09:06:42;99939.69;;;26.87;54.71
5753;BME280;2901;42.140;24.760;2023-09-18T09:09:09;99936.56;;;27.07;53.33
5753;BME280;2901;42.140;24.760;2023-09-18T09:11:34;99940.38;;;27.03;53.42
5753;BME280;2901;42.140;24.760;2023-09-18T09:14:20;99944.97;;;27.13;52.99
5753;BME280;2901;42.140;24.760;2023-09-18T09:16:54;99936.47;;;27.21;51.90
5753;BME280;2901;42.140;24.760;2023-09-18T09:19:34;99938.19;;;27.22;52.03
5753;BME280;2901;42.140;24.760;2023-09-18T09:22:04;99937.84;;;27.14;51.77
5753;BME280;2901;42.140;24.760;2023-09-18T09:24:41;99927.41;;;27.11;52.58
5753;BME280;2901;42.140;24.760;2023-09-18T09:27:08;99919.19;;;27.01;53.07
5753;BME280;2901;42.140;24.760;2023-09-18T09:29:34;99934.78;;;27.20;53.40
5753;BME280;2901;42.140;24.760;2023-09-18T09:32:27;99934.00;;;27.18;53.31
5753;BME280;2901;42.140;24.760;2023-09-18T09:34:59;99932.88;;;27.22;52.73
5753;BME280;2901;42.140;24.760;2023-09-18T09:37:31;99939.47;;;27.42;51.85
5753;BME280;2901;42.140;24.760;2023-09-18T09:40:03;99941.66;;;27.62;50.80
5753;BME280;2901;42.140;24.760;2023-09-18T09:42:39;99932.66;;;28.01;49.86
5753;BME280;2901;42.140;24.760;2023-09-18T09:45:11;99925.97;;;28.44;48.76
5753;BME280;2901;42.140;24.760;2023-09-18T09:47:37;99929.72;;;28.65;47.59
5753;BME280;2901;42.140;24.760;2023-09-18T09:50:11;99932.75;;;28.84;47.61
5753;BME280;2901;42.140;24.760;2023-09-18T09:52:47;99925.84;;;29.17;46.33
5753;BME280;2901;42.140;24.760;2023-09-18T09:55:30;99921.78;;;29.35;45.81
5753;BME280;2901;42.140;24.760;2023-09-18T09:57:57;99925.47;;;29.56;45.19
5753;BME280;2901;42.140;24.760;2023-09-18T10:00:32;99918.69;;;29.63;43.92
5753;BME280;2901;42.140;24.760;2023-09-18T10:03:08;99905.44;;;29.62;43.21
5753;BME280;2901;42.140;24.760;2023-09-18T10:05:36;99905.69;;;29.59;42.53
5753;BME280;2901;42.140;24.760;2023-09-18T10:08:10;99913.06;;;29.44;43.07
5753;BME280;2901;42.140;24.760;2023-09-18T10:10:44;99915.50;;;29.47;43.01
5753;BME280;2901;42.140;24.760;2023-09-18T10:13:32;99909.88;;;29.28;42.74
5753;BME280;2901;42.140;24.760;2023-09-18T10:15:58;99908.38;;;29.13;43.37
5753;BME280;2901;42.140;24.760;2023-09-18T10:18:39;99887.25;;;29.10;42.79
5753;BME280;2901;42.140;24.760;2023-09-18T10:21:26;99904.34;;;29.42;43.12
5753;BME280;2901;42.140;24.760;2023-09-18T10:27:00;99898.88;;;28.98;42.06
5753;BME280;2901;42.140;24.760;2023-09-18T10:29:29;99885.81;;;28.82;42.69
5753;BME280;2901;42.140;24.760;2023-09-18T10:31:55;99887.44;;;28.96;42.75
5753;BME280;2901;42.140;24.760;2023-09-18T10:34:22;99889.31;;;29.06;42.32
5753;BME280;2901;42.140;24.760;2023-09-18T10:36:50;99888.66;;;29.26;42.25
5753;BME280;2901;42.140;24.760;2023-09-18T10:39:16;99885.16;;;29.37;41.24
5753;BME280;2901;42.140;24.760;2023-09-18T10:41:54;99885.66;;;29.53;41.16
5753;BME280;2901;42.140;24.760;2023-09-18T10:44:21;99880.78;;;29.36;40.46
5753;BME280;2901;42.140;24.760;2023-09-18T10:46:49;99879.69;;;29.27;40.84
5753;BME280;2901;42.140;24.760;2023-09-18T10:49:16;99868.31;;;29.37;40.60
5753;BME280;2901;42.140;24.760;2023-09-18T10:51:42;99867.84;;;29.54;39.86
5753;BME280;2901;42.140;24.760;2023-09-18T10:54:15;99871.84;;;29.59;39.72
5753;BME280;2901;42.140;24.760;2023-09-18T10:56:42;99868.69;;;29.43;40.22
5753;BME280;2901;42.140;24.760;2023-09-18T10:59:08;99866.59;;;29.58;40.45
5753;BME280;2901;42.140;24.760;2023-09-18T11:01:34;99869.16;;;29.48;40.20
5753;BME280;2901;42.140;24.760;2023-09-18T11:04:03;99863.97;;;29.12;39.82
5753;BME280;2901;42.140;24.760;2023-09-18T11:06:29;99858.16;;;28.72;40.93
5753;BME280;2901;42.140;24.760;2023-09-18T11:09:07;99867.59;;;28.41;41.73
5753;BME280;2901;42.140;24.760;2023-09-18T11:11:34;99857.16;;;28.38;41.64
5753;BME280;2901;42.140;24.760;2023-09-18T11:14:00;99850.00;;;28.39;40.58
5753;BME280;2901;42.140;24.760;2023-09-18T11:21:25;99853.91;;;28.46;41.86
5753;BME280;2901;42.140;24.760;2023-09-18T11:24:05;99851.16;;;28.71;40.86
5753;BME280;2901;42.140;24.760;2023-09-18T11:26:33;99845.41;;;28.99;41.10
5753;BME280;2901;42.140;24.760;2023-09-18T11:29:13;99838.19;;;29.34;40.14
5753;BME280;2901;42.140;24.760;2023-09-18T11:34:15;99835.44;;;29.36;38.71
5753;BME280;2901;42.140;24.760;2023-09-18T11:36:44;99843.44;;;28.90;39.63
5753;BME280;2901;42.140;24.760;2023-09-18T11:39:10;99837.53;;;28.98;39.83
5753;BME280;2901;42.140;24.760;2023-09-18T11:41:37;99835.81;;;28.97;40.48
5753;BME280;2901;42.140;24.760;2023-09-18T11:46:32;99827.69;;;28.63;39.17
5753;BME280;2901;42.140;24.760;2023-09-18T11:48:58;99825.97;;;28.51;39.57
5753;BME280;2901;42.140;24.760;2023-09-18T11:51:25;99820.22;;;28.68;39.69
5753;BME280;2901;42.140;24.760;2023-09-18T11:53:55;99820.13;;;28.70;39.09
5753;BME280;2901;42.140;24.760;2023-09-18T11:56:22;99829.44;;;28.75;39.11
5753;BME280;2901;42.140;24.760;2023-09-18T11:58:48;99822.97;;;29.02;38.37
5753;BME280;2901;42.140;24.760;2023-09-18T12:01:15;99813.28;;;29.12;38.03
5753;BME280;2901;42.140;24.760;2023-09-18T12:03:41;99816.81;;;29.12;38.32
5753;BME280;2901;42.140;24.760;2023-09-18T12:06:06;99821.84;;;28.82;38.17
5753;BME280;2901;42.140;24.760;2023-09-18T12:08:34;99813.59;;;28.74;39.37
5753;BME280;2901;42.140;24.760;2023-09-18T12:11:04;99818.34;;;28.93;39.31
5753;BME280;2901;42.140;24.760;2023-09-18T12:13:31;99805.16;;;29.02;38.99
5753;BME280;2901;42.140;24.760;2023-09-18T12:18:24;99800.09;;;28.64;39.25
5753;BME280;2901;42.140;24.760;2023-09-18T12:20:50;99803.88;;;28.73;38.89
5753;BME280;2901;42.140;24.760;2023-09-18T12:23:17;99801.63;;;28.91;38.70
5753;BME280;2901;42.140;24.760;2023-09-18T12:25:48;99803.97;;;29.17;38.33
5753;BME280;2901;42.140;24.760;2023-09-18T12:28:15;99806.09;;;29.47;37.84
5753;BME280;2901;42.140;24.760;2023-09-18T12:30:42;99793.47;;;29.60;37.32
5753;BME280;2901;42.140;24.760;2023-09-18T12:33:07;99797.91;;;29.82;36.88
5753;BME280;2901;42.140;24.760;2023-09-18T12:35:33;99792.06;;;29.99;36.15
5753;BME280;2901;42.140;24.760;2023-09-18T12:37:59;99788.81;;;29.84;36.18
5753;BME280;2901;42.140;24.760;2023-09-18T12:40:30;99791.47;;;29.96;36.40
5753;BME280;2901;42.140;24.760;2023-09-18T12:42:56;99780.28;;;30.02;35.79
5753;BME280;2901;42.140;24.760;2023-09-18T12:45:24;99781.25;;;30.01;36.02
5753;BME280;2901;42.140;24.760;2023-09-18T12:47:50;99777.28;;;29.84;36.04
5753;BME280;2901;42.140;24.760;2023-09-18T12:50:16;99772.53;;;29.99;36.32
5753;BME280;2901;42.140;24.760;2023-09-18T12:52:41;99770.53;;;30.12;36.33
5753;BME280;2901;42.140;24.760;2023-09-18T12:55:08;99762.25;;;30.15;35.98
5753;BME280;2901;42.140;24.760;2023-09-18T12:57:33;99766.31;;;30.09;35.66
5753;BME280;2901;42.140;24.760;2023-09-18T12:59:59;99758.91;;;30.02;34.66
5753;BME280;2901;42.140;24.760;2023-09-18T13:02:24;99771.06;;;29.95;34.80
5753;BME280;2901;42.140;24.760;2023-09-18T13:04:54;99763.31;;;29.92;35.14
5753;BME280;2901;42.140;24.760;2023-09-18T13:07:21;99757.75;;;29.72;34.75
5753;BME280;2901;42.140;24.760;2023-09-18T13:10:06;99752.63;;;29.80;34.85
5753;BME280;2901;42.140;24.760;2023-09-18T13:12:52;99758.84;;;29.70;34.85
5753;BME280;2901;42.140;24.760;2023-09-18T13:15:27;99750.25;;;29.55;34.60
5753;BME280;2901;42.140;24.760;2023-09-18T13:17:53;99737.50;;;29.48;34.09
5753;BME280;2901;42.140;24.760;2023-09-18T13:20:25;99756.53;;;29.65;34.06
5753;BME280;2901;42.140;24.760;2023-09-18T13:22:53;99745.41;;;29.49;34.13
5753;BME280;2901;42.140;24.760;2023-09-18T13:25:28;99744.19;;;29.53;33.36
5753;BME280;2901;42.140;24.760;2023-09-18T13:27:53;99746.72;;;29.66;33.69
5753;BME280;2901;42.140;24.760;2023-09-18T13:30:20;99740.69;;;29.53;34.15